sensor_id;sensor_type;location;lat;lon;timestamp;temperature;humidity
13569;DHT22;6856;51.460;7.158;2023-02-08T00:00:51;2.40;59.10
13569;DHT22;6856;51.460;7.158;2023-02-08T00:03:25;2.30;59.00
13569;DHT22;6856;51.460;7.158;2023-02-08T00:06:00;2.30;59.10
13569;DHT22;6856;51.460;7.158;2023-02-08T00:08:34;2.30;59.10
13569;DHT22;6856;51.460;7.158;2023-02-08T00:11:10;2.50;59.30
13569;DHT22;6856;51.460;7.158;2023-02-08T00:13:45;2.20;59.10
13569;DHT22;6856;51.460;7.158;2023-02-08T00:16:19;2.20;59.10
13569;DHT22;6856;51.460;7.158;2023-02-08T00:18:53;2.20;59.20
13569;DHT22;6856;51.460;7.158;2023-02-08T00:21:27;2.20;59.20
13569;DHT22;6856;51.460;7.158;2023-02-08T00:24:01;2.20;59.20
13569;DHT22;6856;51.460;7.158;2023-02-08T00:26:36;2.20;59.20
13569;DHT22;6856;51.460;7.158;2023-02-08T00:29:09;2.10;59.10
13569;DHT22;6856;51.460;7.158;2023-02-08T00:31:42;2.10;59.20
13569;DHT22;6856;51.460;7.158;2023-02-08T00:34:17;2.10;59.20
13569;DHT22;6856;51.460;7.158;2023-02-08T00:36:51;2.10;59.20
13569;DHT22;6856;51.460;7.158;2023-02-08T00:39:24;2.10;59.20
13569;DHT22;6856;51.460;7.158;2023-02-08T00:41:59;2.10;59.20
13569;DHT22;6856;51.460;7.158;2023-02-08T00:44:34;2.10;59.20
13569;DHT22;6856;51.460;7.158;2023-02-08T00:47:08;2.10;59.10
13569;DHT22;6856;51.460;7.158;2023-02-08T00:49:42;2.00;59.10
13569;DHT22;6856;51.460;7.158;2023-02-08T00:52:16;2.00;59.20
13569;DHT22;6856;51.460;7.158;2023-02-08T00:54:51;2.00;59.30
13569;DHT22;6856;51.460;7.158;2023-02-08T00:57:26;1.90;59.30
13569;DHT22;6856;51.460;7.158;2023-02-08T01:00:00;1.90;59.30
13569;DHT22;6856;51.460;7.158;2023-02-08T01:02:34;2.00;59.40
13569;DHT22;6856;51.460;7.158;2023-02-08T01:05:10;1.90;59.30
13569;DHT22;6856;51.460;7.158;2023-02-08T01:07:43;1.90;59.30
13569;DHT22;6856;51.460;7.158;2023-02-08T01:10:17;1.90;59.40
13569;DHT22;6856;51.460;7.158;2023-02-08T01:12:52;1.90;59.40
13569;DHT22;6856;51.460;7.158;2023-02-08T01:15:26;1.90;59.40
13569;DHT22;6856;51.460;7.158;2023-02-08T01:18:00;2.00;59.50
13569;DHT22;6856;51.460;7.158;2023-02-08T01:20:35;1.80;59.40
13569;DHT22;6856;51.460;7.158;2023-02-08T01:23:09;1.80;59.40
13569;DHT22;6856;51.460;7.158;2023-02-08T01:25:43;1.80;59.40
13569;DHT22;6856;51.460;7.158;2023-02-08T01:28:18;1.80;59.40
13569;DHT22;6856;51.460;7.158;2023-02-08T01:30:51;1.80;59.40
13569;DHT22;6856;51.460;7.158;2023-02-08T01:33:25;1.80;59.40
13569;DHT22;6856;51.460;7.158;2023-02-08T01:35:59;1.80;59.40
13569;DHT22;6856;51.460;7.158;2023-02-08T01:38:33;1.80;59.40
13569;DHT22;6856;51.460;7.158;2023-02-08T01:41:12;1.80;59.40
13569;DHT22;6856;51.460;7.158;2023-02-08T01:44:08;1.80;59.40
13569;DHT22;6856;51.460;7.158;2023-02-08T01:47:18;1.70;59.40
13569;DHT22;6856;51.460;7.158;2023-02-08T01:49:52;1.80;59.40
13569;DHT22;6856;51.460;7.158;2023-02-08T01:52:27;1.70;59.40
13569;DHT22;6856;51.460;7.158;2023-02-08T01:55:05;1.70;59.40
13569;DHT22;6856;51.460;7.158;2023-02-08T01:57:44;1.70;59.40
13569;DHT22;6856;51.460;7.158;2023-02-08T02:00:20;1.70;59.40
13569;DHT22;6856;51.460;7.158;2023-02-08T02:02:55;1.70;59.40
13569;DHT22;6856;51.460;7.158;2023-02-08T02:05:34;1.70;59.50
13569;DHT22;6856;51.460;7.158;2023-02-08T02:08:13;2.00;59.60
13569;DHT22;6856;51.460;7.158;2023-02-08T02:10:47;1.70;59.40
13569;DHT22;6856;51.460;7.158;2023-02-08T02:13:22;1.70;59.50
13569;DHT22;6856;51.460;7.158;2023-02-08T02:15:59;1.70;59.40
13569;DHT22;6856;51.460;7.158;2023-02-08T02:18:33;1.70;59.40
13569;DHT22;6856;51.460;7.158;2023-02-08T02:21:25;1.70;59.40
13569;DHT22;6856;51.460;7.158;2023-02-08T02:31:52;1.70;59.40
13569;DHT22;6856;51.460;7.158;2023-02-08T02:34:41;1.70;59.40
13569;DHT22;6856;51.460;7.158;2023-02-08T02:37:29;1.70;59.40
13569;DHT22;6856;51.460;7.158;2023-02-08T02:40:15;1.70;59.50
13569;DHT22;6856;51.460;7.158;2023-02-08T02:43:00;1.60;59.40
13569;DHT22;6856;51.460;7.158;2023-02-08T02:46:03;1.60;59.40
13569;DHT22;6856;51.460;7.158;2023-02-08T02:48:49;1.60;59.40
13569;DHT22;6856;51.460;7.158;2023-02-08T02:51:34;1.60;59.40
13569;DHT22;6856;51.460;7.158;2023-02-08T02:54:17;1.60;59.40
13569;DHT22;6856;51.460;7.158;2023-02-08T02:56:56;1.50;59.30
13569;DHT22;6856;51.460;7.158;2023-02-08T02:59:34;1.50;59.40
13569;DHT22;6856;51.460;7.158;2023-02-08T03:02:10;1.50;59.50
13569;DHT22;6856;51.460;7.158;2023-02-08T03:04:53;1.50;59.50
13569;DHT22;6856;51.460;7.158;2023-02-08T03:07:50;1.50;59.50
13569;DHT22;6856;51.460;7.158;2023-02-08T03:13:47;1.40;59.40
13569;DHT22;6856;51.460;7.158;2023-02-08T03:16:46;1.40;59.40
13569;DHT22;6856;51.460;7.158;2023-02-08T03:19:35;1.40;59.40
13569;DHT22;6856;51.460;7.158;2023-02-08T03:22:20;1.50;59.40
13569;DHT22;6856;51.460;7.158;2023-02-08T03:25:02;1.40;59.40
13569;DHT22;6856;51.460;7.158;2023-02-08T03:27:48;1.60;59.50
13569;DHT22;6856;51.460;7.158;2023-02-08T03:30:33;1.30;59.40
13569;DHT22;6856;51.460;7.158;2023-02-08T03:33:18;1.40;59.40
13569;DHT22;6856;51.460;7.158;2023-02-08T03:36:00;1.50;59.50
13569;DHT22;6856;51.460;7.158;2023-02-08T03:38:42;1.30;59.50
13569;DHT22;6856;51.460;7.158;2023-02-08T03:41:25;1.30;59.60
13569;DHT22;6856;51.460;7.158;2023-02-08T03:44:08;1.20;59.60
13569;DHT22;6856;51.460;7.158;2023-02-08T03:46:49;1.20;59.70
13569;DHT22;6856;51.460;7.158;2023-02-08T03:49:30;1.50;59.80
13569;DHT22;6856;51.460;7.158;2023-02-08T03:52:09;1.20;59.60
13569;DHT22;6856;51.460;7.158;2023-02-08T03:54:48;1.10;59.60
13569;DHT22;6856;51.460;7.158;2023-02-08T03:57:25;1.20;59.70
13569;DHT22;6856;51.460;7.158;2023-02-08T04:00:06;1.10;59.80
13569;DHT22;6856;51.460;7.158;2023-02-08T04:02:45;1.10;59.80
13569;DHT22;6856;51.460;7.158;2023-02-08T04:05:26;1.10;59.80
13569;DHT22;6856;51.460;7.158;2023-02-08T04:08:00;1.10;59.90
13569;DHT22;6856;51.460;7.158;2023-02-08T04:10:35;1.10;59.90
13569;DHT22;6856;51.460;7.158;2023-02-08T04:13:09;1.10;59.90
13569;DHT22;6856;51.460;7.158;2023-02-08T04:15:43;1.10;59.90
13569;DHT22;6856;51.460;7.158;2023-02-08T04:18:16;1.10;59.90
13569;DHT22;6856;51.460;7.158;2023-02-08T04:20:50;1.10;59.80
13569;DHT22;6856;51.460;7.158;2023-02-08T04:23:23;1.10;59.80
13569;DHT22;6856;51.460;7.158;2023-02-08T04:25:58;1.10;59.80
13569;DHT22;6856;51.460;7.158;2023-02-08T04:28:31;1.10;59.70
13569;DHT22;6856;51.460;7.158;2023-02-08T04:31:05;1.10;59.70
13569;DHT22;6856;51.460;7.158;2023-02-08T04:33:39;1.00;59.50
13569;DHT22;6856;51.460;7.158;2023-02-08T04:36:13;1.00;59.70
13569;DHT22;6856;51.460;7.158;2023-02-08T04:38:46;1.00;59.60
13569;DHT22;6856;51.460;7.158;2023-02-08T04:41:22;1.10;59.60
13569;DHT22;6856;51.460;7.158;2023-02-08T04:43:55;1.00;59.60
13569;DHT22;6856;51.460;7.158;2023-02-08T04:46:29;1.10;59.70
13569;DHT22;6856;51.460;7.158;2023-02-08T04:49:04;1.00;59.60
13569;DHT22;6856;51.460;7.158;2023-02-08T04:51:37;1.00;59.50
13569;DHT22;6856;51.460;7.158;2023-02-08T04:54:11;1.00;59.60
13569;DHT22;6856;51.460;7.158;2023-02-08T04:56:47;1.00;59.60
13569;DHT22;6856;51.460;7.158;2023-02-08T04:59:20;1.00;59.70
13569;DHT22;6856;51.460;7.158;2023-02-08T05:01:54;1.00;59.70
13569;DHT22;6856;51.460;7.158;2023-02-08T05:04:30;1.00;59.70
13569;DHT22;6856;51.460;7.158;2023-02-08T05:07:04;1.10;59.80
13569;DHT22;6856;51.460;7.158;2023-02-08T05:09:37;0.90;59.70
13569;DHT22;6856;51.460;7.158;2023-02-08T05:12:12;1.00;59.70
13569;DHT22;6856;51.460;7.158;2023-02-08T05:14:46;0.90;59.60
13569;DHT22;6856;51.460;7.158;2023-02-08T05:17:20;0.90;60.20
13569;DHT22;6856;51.460;7.158;2023-02-08T05:19:54;0.90;59.50
13569;DHT22;6856;51.460;7.158;2023-02-08T05:22:27;0.90;59.50
13569;DHT22;6856;51.460;7.158;2023-02-08T05:25:01;0.90;59.70
13569;DHT22;6856;51.460;7.158;2023-02-08T05:27:36;0.90;59.60
13569;DHT22;6856;51.460;7.158;2023-02-08T05:30:11;0.90;59.70
13569;DHT22;6856;51.460;7.158;2023-02-08T05:32:45;0.90;59.60
13569;DHT22;6856;51.460;7.158;2023-02-08T05:35:19;0.90;59.50
13569;DHT22;6856;51.460;7.158;2023-02-08T05:37:52;0.90;59.50
13569;DHT22;6856;51.460;7.158;2023-02-08T05:40:26;0.90;59.50
13569;DHT22;6856;51.460;7.158;2023-02-08T05:43:02;0.90;59.60
13569;DHT22;6856;51.460;7.158;2023-02-08T05:45:35;0.80;59.50
13569;DHT22;6856;51.460;7.158;2023-02-08T05:48:09;0.90;59.60
13569;DHT22;6856;51.460;7.158;2023-02-08T05:50:42;0.90;59.60
13569;DHT22;6856;51.460;7.158;2023-02-08T05:53:16;0.90;59.60
13569;DHT22;6856;51.460;7.158;2023-02-08T05:55:49;0.80;59.60
13569;DHT22;6856;51.460;7.158;2023-02-08T05:58:24;0.80;59.60
13569;DHT22;6856;51.460;7.158;2023-02-08T06:00:59;0.80;59.60
13569;DHT22;6856;51.460;7.158;2023-02-08T06:03:33;0.80;59.50
13569;DHT22;6856;51.460;7.158;2023-02-08T06:06:07;0.80;59.50
13569;DHT22;6856;51.460;7.158;2023-02-08T06:08:42;0.80;59.50
13569;DHT22;6856;51.460;7.158;2023-02-08T06:11:16;0.80;59.40
13569;DHT22;6856;51.460;7.158;2023-02-08T06:13:51;0.80;59.50
13569;DHT22;6856;51.460;7.158;2023-02-08T06:16:26;0.80;59.50
13569;DHT22;6856;51.460;7.158;2023-02-08T06:18:59;0.80;59.50
13569;DHT22;6856;51.460;7.158;2023-02-08T06:21:33;0.70;59.40
13569;DHT22;6856;51.460;7.158;2023-02-08T06:24:07;1.00;59.60
13569;DHT22;6856;51.460;7.158;2023-02-08T06:26:43;0.70;59.50
13569;DHT22;6856;51.460;7.158;2023-02-08T06:29:18;0.70;59.50
13569;DHT22;6856;51.460;7.158;2023-02-08T06:31:52;0.70;59.50
13569;DHT22;6856;51.460;7.158;2023-02-08T06:34:26;0.70;59.50
13569;DHT22;6856;51.460;7.158;2023-02-08T06:37:00;0.70;59.50
13569;DHT22;6856;51.460;7.158;2023-02-08T06:39:36;0.70;59.50
13569;DHT22;6856;51.460;7.158;2023-02-08T06:42:10;0.70;59.50
13569;DHT22;6856;51.460;7.158;2023-02-08T06:44:45;0.70;59.50
13569;DHT22;6856;51.460;7.158;2023-02-08T06:47:26;0.80;59.50
13569;DHT22;6856;51.460;7.158;2023-02-08T06:50:00;0.70;59.50
13569;DHT22;6856;51.460;7.158;2023-02-08T06:52:34;0.60;59.50
13569;DHT22;6856;51.460;7.158;2023-02-08T06:55:08;0.60;59.60
13569;DHT22;6856;51.460;7.158;2023-02-08T06:57:42;0.70;59.70
13569;DHT22;6856;51.460;7.158;2023-02-08T07:00:17;0.60;59.60
13569;DHT22;6856;51.460;7.158;2023-02-08T07:02:51;0.70;59.70
13569;DHT22;6856;51.460;7.158;2023-02-08T07:05:24;0.60;59.60
13569;DHT22;6856;51.460;7.158;2023-02-08T07:07:58;0.60;60.30
13569;DHT22;6856;51.460;7.158;2023-02-08T07:10:37;0.60;59.70
13569;DHT22;6856;51.460;7.158;2023-02-08T07:13:20;0.60;59.70
13569;DHT22;6856;51.460;7.158;2023-02-08T07:15:55;0.60;59.70
13569;DHT22;6856;51.460;7.158;2023-02-08T07:18:29;0.60;59.70
13569;DHT22;6856;51.460;7.158;2023-02-08T07:21:03;0.60;59.80
13569;DHT22;6856;51.460;7.158;2023-02-08T07:23:38;0.60;59.80
13569;DHT22;6856;51.460;7.158;2023-02-08T07:26:12;0.70;59.90
13569;DHT22;6856;51.460;7.158;2023-02-08T07:28:46;0.70;59.90
13569;DHT22;6856;51.460;7.158;2023-02-08T07:31:21;0.70;59.90
13569;DHT22;6856;51.460;7.158;2023-02-08T07:33:55;0.70;59.90
13569;DHT22;6856;51.460;7.158;2023-02-08T07:36:28;0.70;59.90
13569;DHT22;6856;51.460;7.158;2023-02-08T07:39:02;0.70;60.00
13569;DHT22;6856;51.460;7.158;2023-02-08T07:41:37;0.70;60.00
13569;DHT22;6856;51.460;7.158;2023-02-08T07:44:11;0.70;60.00
13569;DHT22;6856;51.460;7.158;2023-02-08T07:46:46;0.70;60.00
13569;DHT22;6856;51.460;7.158;2023-02-08T07:49:19;0.70;60.00
13569;DHT22;6856;51.460;7.158;2023-02-08T07:51:53;0.70;60.20
13569;DHT22;6856;51.460;7.158;2023-02-08T07:54:28;0.70;60.20
13569;DHT22;6856;51.460;7.158;2023-02-08T07:57:02;0.80;60.40
13569;DHT22;6856;51.460;7.158;2023-02-08T07:59:35;0.80;60.40
13569;DHT22;6856;51.460;7.158;2023-02-08T08:02:13;0.80;60.50
13569;DHT22;6856;51.460;7.158;2023-02-08T08:04:47;0.90;60.80
13569;DHT22;6856;51.460;7.158;2023-02-08T08:07:21;0.90;60.90
13569;DHT22;6856;51.460;7.158;2023-02-08T08:09:54;0.90;61.10
13569;DHT22;6856;51.460;7.158;2023-02-08T08:12:28;1.00;61.20
13569;DHT22;6856;51.460;7.158;2023-02-08T08:15:03;1.00;61.30
13569;DHT22;6856;51.460;7.158;2023-02-08T08:17:38;1.00;61.60
13569;DHT22;6856;51.460;7.158;2023-02-08T08:20:13;1.10;61.70
13569;DHT22;6856;51.460;7.158;2023-02-08T08:22:46;1.10;62.00
13569;DHT22;6856;51.460;7.158;2023-02-08T08:25:20;1.20;62.30
13569;DHT22;6856;51.460;7.158;2023-02-08T08:27:53;1.30;62.70
13569;DHT22;6856;51.460;7.158;2023-02-08T08:30:27;1.40;63.10
13569;DHT22;6856;51.460;7.158;2023-02-08T08:33:03;1.50;63.30
13569;DHT22;6856;51.460;7.158;2023-02-08T08:35:37;1.50;63.70
13569;DHT22;6856;51.460;7.158;2023-02-08T08:38:11;1.60;63.90
13569;DHT22;6856;51.460;7.158;2023-02-08T08:40:45;1.70;64.00
13569;DHT22;6856;51.460;7.158;2023-02-08T08:43:19;1.80;64.10
13569;DHT22;6856;51.460;7.158;2023-02-08T08:45:52;1.90;64.40
13569;DHT22;6856;51.460;7.158;2023-02-08T08:48:27;2.00;64.40
13569;DHT22;6856;51.460;7.158;2023-02-08T08:51:01;2.10;64.90
13569;DHT22;6856;51.460;7.158;2023-02-08T08:53:35;2.20;65.30
13569;DHT22;6856;51.460;7.158;2023-02-08T08:56:09;2.50;65.70
13569;DHT22;6856;51.460;7.158;2023-02-08T08:58:43;2.40;65.80
13569;DHT22;6856;51.460;7.158;2023-02-08T09:01:16;2.60;66.00
13569;DHT22;6856;51.460;7.158;2023-02-08T09:03:51;2.70;66.30
13569;DHT22;6856;51.460;7.158;2023-02-08T09:06:25;2.80;66.20
13569;DHT22;6856;51.460;7.158;2023-02-08T09:08:58;2.90;66.40
13569;DHT22;6856;51.460;7.158;2023-02-08T09:11:33;3.10;66.30
13569;DHT22;6856;51.460;7.158;2023-02-08T09:14:07;3.00;66.00
13569;DHT22;6856;51.460;7.158;2023-02-08T09:16:41;3.30;66.00
13569;DHT22;6856;51.460;7.158;2023-02-08T09:19:20;3.40;66.00
13569;DHT22;6856;51.460;7.158;2023-02-08T09:21:54;3.60;65.90
13569;DHT22;6856;51.460;7.158;2023-02-08T09:24:29;3.70;65.50
13569;DHT22;6856;51.460;7.158;2023-02-08T09:27:02;4.00;65.30
13569;DHT22;6856;51.460;7.158;2023-02-08T09:29:36;3.90;64.90
13569;DHT22;6856;51.460;7.158;2023-02-08T09:32:09;4.10;64.40
13569;DHT22;6856;51.460;7.158;2023-02-08T09:34:45;4.20;63.70
13569;DHT22;6856;51.460;7.158;2023-02-08T09:37:18;4.40;62.80
13569;DHT22;6856;51.460;7.158;2023-02-08T09:39:52;4.50;62.00
13569;DHT22;6856;51.460;7.158;2023-02-08T09:42:38;4.60;61.60
13569;DHT22;6856;51.460;7.158;2023-02-08T09:45:28;4.80;61.20
13569;DHT22;6856;51.460;7.158;2023-02-08T09:48:33;4.90;60.80
13569;DHT22;6856;51.460;7.158;2023-02-08T09:51:20;5.10;60.40
13569;DHT22;6856;51.460;7.158;2023-02-08T09:54:04;4.80;59.20
13569;DHT22;6856;51.460;7.158;2023-02-08T09:56:42;5.30;59.50
13569;DHT22;6856;51.460;7.158;2023-02-08T09:59:21;5.40;59.80
13569;DHT22;6856;51.460;7.158;2023-02-08T10:02:01;5.50;59.20
13569;DHT22;6856;51.460;7.158;2023-02-08T10:04:54;5.60;58.40
13569;DHT22;6856;51.460;7.158;2023-02-08T10:07:34;5.80;57.80
13569;DHT22;6856;51.460;7.158;2023-02-08T10:10:14;5.90;57.80
13569;DHT22;6856;51.460;7.158;2023-02-08T10:12:57;6.00;57.60
13569;DHT22;6856;51.460;7.158;2023-02-08T10:15:42;6.10;57.30
13569;DHT22;6856;51.460;7.158;2023-02-08T10:18:32;6.30;57.20
13569;DHT22;6856;51.460;7.158;2023-02-08T10:21:26;6.40;57.00
13569;DHT22;6856;51.460;7.158;2023-02-08T10:24:23;6.50;56.50
13569;DHT22;6856;51.460;7.158;2023-02-08T10:27:14;6.60;56.00
13569;DHT22;6856;51.460;7.158;2023-02-08T10:30:09;6.80;56.10
13569;DHT22;6856;51.460;7.158;2023-02-08T10:32:58;6.90;55.30
13569;DHT22;6856;51.460;7.158;2023-02-08T10:35:36;7.00;55.10
13569;DHT22;6856;51.460;7.158;2023-02-08T10:38:24;7.10;54.80
13569;DHT22;6856;51.460;7.158;2023-02-08T10:41:22;7.20;54.00
13569;DHT22;6856;51.460;7.158;2023-02-08T10:44:04;7.50;53.90
13569;DHT22;6856;51.460;7.158;2023-02-08T10:46:51;7.40;53.50
13569;DHT22;6856;51.460;7.158;2023-02-08T10:49:37;7.50;52.80
13569;DHT22;6856;51.460;7.158;2023-02-08T10:52:17;7.60;52.30
13569;DHT22;6856;51.460;7.158;2023-02-08T10:54:51;7.70;52.40
13569;DHT22;6856;51.460;7.158;2023-02-08T10:57:31;7.80;52.20
13569;DHT22;6856;51.460;7.158;2023-02-08T11:00:20;7.90;52.10
13569;DHT22;6856;51.460;7.158;2023-02-08T11:03:00;8.00;52.10
13569;DHT22;6856;51.460;7.158;2023-02-08T11:05:44;8.10;52.20
13569;DHT22;6856;51.460;7.158;2023-02-08T11:08:20;8.20;52.00
13569;DHT22;6856;51.460;7.158;2023-02-08T11:10:57;8.30;51.60
13569;DHT22;6856;51.460;7.158;2023-02-08T11:14:06;8.40;50.60
13569;DHT22;6856;51.460;7.158;2023-02-08T11:16:48;8.70;49.70
13569;DHT22;6856;51.460;7.158;2023-02-08T11:19:32;8.70;50.10
13569;DHT22;6856;51.460;7.158;2023-02-08T11:22:14;8.70;49.50
13569;DHT22;6856;51.460;7.158;2023-02-08T11:24:56;8.70;49.60
13569;DHT22;6856;51.460;7.158;2023-02-08T11:27:33;8.80;49.40
13569;DHT22;6856;51.460;7.158;2023-02-08T11:30:19;8.90;49.40
13569;DHT22;6856;51.460;7.158;2023-02-08T11:33:16;9.00;49.20
13569;DHT22;6856;51.460;7.158;2023-02-08T11:35:58;9.10;49.30
13569;DHT22;6856;51.460;7.158;2023-02-08T11:38:35;9.20;50.40
13569;DHT22;6856;51.460;7.158;2023-02-08T11:41:16;9.20;49.20
13569;DHT22;6856;51.460;7.158;2023-02-08T11:43:58;9.30;48.80
13569;DHT22;6856;51.460;7.158;2023-02-08T11:46:37;9.40;48.80
13569;DHT22;6856;51.460;7.158;2023-02-08T11:49:21;9.50;48.70
13569;DHT22;6856;51.460;7.158;2023-02-08T11:51:56;9.60;48.30
13569;DHT22;6856;51.460;7.158;2023-02-08T11:54:37;9.70;48.10
13569;DHT22;6856;51.460;7.158;2023-02-08T11:57:15;9.80;47.60
13569;DHT22;6856;51.460;7.158;2023-02-08T12:00:15;9.80;47.40
13569;DHT22;6856;51.460;7.158;2023-02-08T12:02:58;9.90;46.40
13569;DHT22;6856;51.460;7.158;2023-02-08T12:05:39;10.00;47.40
13569;DHT22;6856;51.460;7.158;2023-02-08T12:08:26;10.10;47.30
13569;DHT22;6856;51.460;7.158;2023-02-08T12:11:16;10.20;46.90
13569;DHT22;6856;51.460;7.158;2023-02-08T12:14:02;10.20;47.10
13569;DHT22;6856;51.460;7.158;2023-02-08T12:20:32;10.30;46.50
13569;DHT22;6856;51.460;7.158;2023-02-08T12:23:36;10.50;46.80
13569;DHT22;6856;51.460;7.158;2023-02-08T12:26:38;10.50;46.60
13569;DHT22;6856;51.460;7.158;2023-02-08T12:29:40;10.60;46.90
13569;DHT22;6856;51.460;7.158;2023-02-08T12:32:34;10.70;47.10
13569;DHT22;6856;51.460;7.158;2023-02-08T12:38:54;10.80;46.20
13569;DHT22;6856;51.460;7.158;2023-02-08T12:42:17;10.90;46.80
13569;DHT22;6856;51.460;7.158;2023-02-08T12:45:31;11.20;47.00
13569;DHT22;6856;51.460;7.158;2023-02-08T12:48:38;11.10;46.10
13569;DHT22;6856;51.460;7.158;2023-02-08T12:51:43;11.20;46.60
13569;DHT22;6856;51.460;7.158;2023-02-08T12:54:29;11.30;46.40
13569;DHT22;6856;51.460;7.158;2023-02-08T12:57:10;11.30;46.00
13569;DHT22;6856;51.460;7.158;2023-02-08T12:59:47;11.40;46.30
13569;DHT22;6856;51.460;7.158;2023-02-08T13:02:26;11.40;46.30
13569;DHT22;6856;51.460;7.158;2023-02-08T13:05:06;11.50;46.00
13569;DHT22;6856;51.460;7.158;2023-02-08T13:07:48;11.60;46.00
13569;DHT22;6856;51.460;7.158;2023-02-08T13:10:30;11.60;46.00
13569;DHT22;6856;51.460;7.158;2023-02-08T13:13:14;11.70;45.40
13569;DHT22;6856;51.460;7.158;2023-02-08T13:15:56;11.70;45.30
13569;DHT22;6856;51.460;7.158;2023-02-08T13:18:37;11.80;45.60
13569;DHT22;6856;51.460;7.158;2023-02-08T13:21:18;11.80;44.80
13569;DHT22;6856;51.460;7.158;2023-02-08T13:23:58;11.90;44.30
13569;DHT22;6856;51.460;7.158;2023-02-08T13:26:34;11.90;44.40
13569;DHT22;6856;51.460;7.158;2023-02-08T13:29:17;12.00;44.60
13569;DHT22;6856;51.460;7.158;2023-02-08T13:31:56;11.90;44.00
13569;DHT22;6856;51.460;7.158;2023-02-08T13:34:37;11.90;44.00
13569;DHT22;6856;51.460;7.158;2023-02-08T13:37:20;11.90;43.90
13569;DHT22;6856;51.460;7.158;2023-02-08T13:40:05;12.00;43.60
13569;DHT22;6856;51.460;7.158;2023-02-08T13:42:56;11.90;43.20
13569;DHT22;6856;51.460;7.158;2023-02-08T13:45:34;11.90;42.90
13569;DHT22;6856;51.460;7.158;2023-02-08T13:48:13;11.90;43.10
13569;DHT22;6856;51.460;7.158;2023-02-08T13:50:50;11.90;43.40
13569;DHT22;6856;51.460;7.158;2023-02-08T13:56:45;11.90;43.80
13569;DHT22;6856;51.460;7.158;2023-02-08T13:59:29;11.80;43.70
13569;DHT22;6856;51.460;7.158;2023-02-08T14:02:26;11.80;42.40
13569;DHT22;6856;51.460;7.158;2023-02-08T14:08:21;11.80;42.20
13569;DHT22;6856;51.460;7.158;2023-02-08T14:11:04;11.70;43.40
13569;DHT22;6856;51.460;7.158;2023-02-08T14:13:53;11.60;42.80
13569;DHT22;6856;51.460;7.158;2023-02-08T14:16:32;11.60;42.50
13569;DHT22;6856;51.460;7.158;2023-02-08T14:19:23;11.50;42.30
13569;DHT22;6856;51.460;7.158;2023-02-08T14:22:00;11.50;41.40
13569;DHT22;6856;51.460;7.158;2023-02-08T14:24:37;11.40;42.30
13569;DHT22;6856;51.460;7.158;2023-02-08T14:27:19;11.30;42.10
13569;DHT22;6856;51.460;7.158;2023-02-08T14:30:02;11.20;42.30
13569;DHT22;6856;51.460;7.158;2023-02-08T14:32:41;11.20;42.00
13569;DHT22;6856;51.460;7.158;2023-02-08T14:35:20;11.10;42.50
13569;DHT22;6856;51.460;7.158;2023-02-08T14:38:30;11.00;42.00
13569;DHT22;6856;51.460;7.158;2023-02-08T14:45:03;10.90;42.10
13569;DHT22;6856;51.460;7.158;2023-02-08T14:48:15;10.80;41.90
13569;DHT22;6856;51.460;7.158;2023-02-08T14:51:01;10.70;41.50
13569;DHT22;6856;51.460;7.158;2023-02-08T14:53:51;10.80;42.10
13569;DHT22;6856;51.460;7.158;2023-02-08T14:56:30;10.60;41.80
13569;DHT22;6856;51.460;7.158;2023-02-08T14:59:12;10.50;41.60
13569;DHT22;6856;51.460;7.158;2023-02-08T15:01:50;10.60;41.70
13569;DHT22;6856;51.460;7.158;2023-02-08T15:04:27;10.40;41.70
13569;DHT22;6856;51.460;7.158;2023-02-08T15:07:20;10.40;41.80
13569;DHT22;6856;51.460;7.158;2023-02-08T15:10:08;10.30;41.30
13569;DHT22;6856;51.460;7.158;2023-02-08T15:12:48;10.20;41.70
13569;DHT22;6856;51.460;7.158;2023-02-08T15:15:28;10.20;41.80
13569;DHT22;6856;51.460;7.158;2023-02-08T15:18:14;10.20;42.10
13569;DHT22;6856;51.460;7.158;2023-02-08T15:21:02;10.20;42.40
13569;DHT22;6856;51.460;7.158;2023-02-08T15:23:37;10.10;41.60
13569;DHT22;6856;51.460;7.158;2023-02-08T15:26:20;10.10;41.90
13569;DHT22;6856;51.460;7.158;2023-02-08T15:28:55;10.00;41.50
13569;DHT22;6856;51.460;7.158;2023-02-08T15:31:32;10.00;41.80
13569;DHT22;6856;51.460;7.158;2023-02-08T15:34:09;9.90;41.70
13569;DHT22;6856;51.460;7.158;2023-02-08T15:36:47;9.90;41.70
13569;DHT22;6856;51.460;7.158;2023-02-08T15:39:29;9.80;41.60
13569;DHT22;6856;51.460;7.158;2023-02-08T15:42:14;9.80;41.50
13569;DHT22;6856;51.460;7.158;2023-02-08T15:44:49;9.80;41.50
13569;DHT22;6856;51.460;7.158;2023-02-08T15:47:27;9.70;41.70
13569;DHT22;6856;51.460;7.158;2023-02-08T15:50:06;9.70;41.50
13569;DHT22;6856;51.460;7.158;2023-02-08T15:52:53;9.70;41.60
13569;DHT22;6856;51.460;7.158;2023-02-08T15:55:33;9.60;41.70
13569;DHT22;6856;51.460;7.158;2023-02-08T15:58:16;9.60;41.80
13569;DHT22;6856;51.460;7.158;2023-02-08T16:01:01;9.60;41.70
13569;DHT22;6856;51.460;7.158;2023-02-08T16:03:36;9.60;41.90
13569;DHT22;6856;51.460;7.158;2023-02-08T16:06:11;9.40;41.80
13569;DHT22;6856;51.460;7.158;2023-02-08T16:08:48;9.40;42.20
13569;DHT22;6856;51.460;7.158;2023-02-08T16:11:26;9.30;42.40
13569;DHT22;6856;51.460;7.158;2023-02-08T16:14:04;9.30;42.60
13569;DHT22;6856;51.460;7.158;2023-02-08T16:16:40;9.20;42.70
13569;DHT22;6856;51.460;7.158;2023-02-08T16:19:22;9.20;43.10
13569;DHT22;6856;51.460;7.158;2023-02-08T16:22:21;9.10;43.40
13569;DHT22;6856;51.460;7.158;2023-02-08T16:25:21;9.10;43.40
13569;DHT22;6856;51.460;7.158;2023-02-08T16:27:56;9.00;43.80
13569;DHT22;6856;51.460;7.158;2023-02-08T16:30:30;8.90;44.00
13569;DHT22;6856;51.460;7.158;2023-02-08T16:33:11;8.80;44.10
13569;DHT22;6856;51.460;7.158;2023-02-08T16:35:45;8.90;44.30
13569;DHT22;6856;51.460;7.158;2023-02-08T16:38:22;8.70;44.30
13569;DHT22;6856;51.460;7.158;2023-02-08T16:40:57;8.80;44.30
13569;DHT22;6856;51.460;7.158;2023-02-08T16:43:43;8.50;44.20
13569;DHT22;6856;51.460;7.158;2023-02-08T16:46:22;8.40;44.40
13569;DHT22;6856;51.460;7.158;2023-02-08T16:48:58;8.40;44.60
13569;DHT22;6856;51.460;7.158;2023-02-08T16:51:32;8.30;44.60
13569;DHT22;6856;51.460;7.158;2023-02-08T16:54:10;8.30;44.80
13569;DHT22;6856;51.460;7.158;2023-02-08T16:56:47;8.20;44.90
13569;DHT22;6856;51.460;7.158;2023-02-08T16:59:26;8.10;45.00
13569;DHT22;6856;51.460;7.158;2023-02-08T17:02:00;8.00;44.90
13569;DHT22;6856;51.460;7.158;2023-02-08T17:04:34;8.00;44.90
13569;DHT22;6856;51.460;7.158;2023-02-08T17:07:10;7.90;45.00
13569;DHT22;6856;51.460;7.158;2023-02-08T17:09:51;7.80;45.20
13569;DHT22;6856;51.460;7.158;2023-02-08T17:12:25;8.00;45.30
13569;DHT22;6856;51.460;7.158;2023-02-08T17:14:59;7.60;45.20
13569;DHT22;6856;51.460;7.158;2023-02-08T17:17:32;7.60;45.70
13569;DHT22;6856;51.460;7.158;2023-02-08T17:20:16;7.50;45.40
13569;DHT22;6856;51.460;7.158;2023-02-08T17:22:54;7.40;45.50
13569;DHT22;6856;51.460;7.158;2023-02-08T17:25:34;7.40;45.40
13569;DHT22;6856;51.460;7.158;2023-02-08T17:28:13;7.30;45.50
13569;DHT22;6856;51.460;7.158;2023-02-08T17:30:49;7.30;45.60
13569;DHT22;6856;51.460;7.158;2023-02-08T17:33:24;7.20;45.70
13569;DHT22;6856;51.460;7.158;2023-02-08T17:36:00;7.30;46.00
13569;DHT22;6856;51.460;7.158;2023-02-08T17:38:34;7.10;46.00
13569;DHT22;6856;51.460;7.158;2023-02-08T17:41:13;7.10;46.20
13569;DHT22;6856;51.460;7.158;2023-02-08T17:43:49;7.00;46.40
13569;DHT22;6856;51.460;7.158;2023-02-08T17:46:26;6.90;46.40